createdAt,value
2022-11-16T00:01:39.928Z,95155.31
2022-11-16T00:04:07.563Z,95156.00
2022-11-16T00:06:35.159Z,95150.06
2022-11-16T00:09:23.159Z,95144.63
2022-11-16T00:11:52.168Z,95144.09
2022-11-16T00:14:20.686Z,95151.81
2022-11-16T00:16:49.611Z,95154.69
2022-11-16T00:19:17.205Z,95136.94
2022-11-16T00:21:44.760Z,95132.94
2022-11-16T00:24:14.737Z,95125.50
2022-11-16T00:26:42.700Z,95116.84
2022-11-16T00:29:14.934Z,95119.78
2022-11-16T00:31:42.487Z,95118.47
2022-11-16T00:34:11.426Z,95127.50
2022-11-16T00:36:38.985Z,95121.72
2022-11-16T00:39:06.675Z,95122.16
2022-11-16T00:41:34.224Z,95124.75
2022-11-16T00:44:01.757Z,95122.94
2022-11-16T00:46:29.307Z,95129.59
2022-11-16T00:48:56.924Z,95120.31
2022-11-16T00:51:25.887Z,95121.84
2022-11-16T00:53:53.430Z,95121.88
2022-11-16T00:56:21.126Z,95110.91
2022-11-16T00:58:48.688Z,95105.81
2022-11-16T01:01:16.343Z,95103.34
2022-11-16T01:03:43.924Z,95103.16
2022-11-16T01:06:15.445Z,95103.34
2022-11-16T01:08:45.633Z,95088.50
2022-11-16T01:11:32.944Z,95097.97
2022-11-16T01:14:02.990Z,95087.84
2022-11-16T01:16:31.050Z,95094.47
2022-11-16T01:18:58.980Z,95092.63
2022-11-16T01:21:26.666Z,95096.94
2022-11-16T01:23:56.974Z,95085.88
2022-11-16T01:26:25.138Z,95093.78
2022-11-16T01:28:52.988Z,95088.81
2022-11-16T01:31:20.839Z,95069.50
2022-11-16T01:33:48.410Z,95069.91
2022-11-16T01:36:16.165Z,95065.41
2022-11-16T01:38:44.119Z,95069.91
2022-11-16T01:41:15.147Z,95081.22
2022-11-16T01:43:54.713Z,95070.66
2022-11-16T01:46:22.790Z,95083.84
2022-11-16T01:48:53.100Z,95074.59
2022-11-16T01:51:21.415Z,95072.38
2022-11-16T01:53:49.050Z,95076.53
2022-11-16T01:56:18.082Z,95074.81
2022-11-16T01:58:46.459Z,95061.38
2022-11-16T02:01:14.074Z,95057.19
2022-11-16T02:03:42.264Z,95059.91
2022-11-16T02:06:23.156Z,95061.41
2022-11-16T02:09:22.597Z,95060.47
2022-11-16T02:12:09.578Z,95062.03
2022-11-16T02:14:54.471Z,95057.91
2022-11-16T02:17:33.084Z,95063.34
2022-11-16T02:20:40.325Z,95057.88
2022-11-16T02:23:44.487Z,95048.00
2022-11-16T02:26:33.393Z,95047.44
2022-11-16T02:29:15.143Z,95049.00
2022-11-16T02:31:50.323Z,95042.25
2022-11-16T02:34:20.694Z,95031.63
2022-11-16T02:36:51.335Z,95030.84
2022-11-16T02:39:24.078Z,95034.81
2022-11-16T02:41:53.885Z,95034.66
2022-11-16T02:44:27.728Z,95027.06
2022-11-16T02:47:00.260Z,95032.13
2022-11-16T02:49:30.535Z,95027.63
2022-11-16T02:52:00.264Z,95020.91
2022-11-16T02:54:27.875Z,95021.97
2022-11-16T02:56:58.474Z,95019.91
2022-11-16T02:59:33.356Z,95015.75
2022-11-16T03:02:09.463Z,95015.19
2022-11-16T03:04:41.756Z,95004.66
2022-11-16T03:07:14.808Z,95003.69
2022-11-16T03:09:44.886Z,94994.78
2022-11-16T03:12:20.287Z,94996.16
2022-11-16T03:14:53.658Z,94994.66
2022-11-16T03:17:26.285Z,95000.31
2022-11-16T03:19:59.024Z,94998.63
2022-11-16T03:22:32.206Z,95007.09
2022-11-16T03:24:59.921Z,95006.34
2022-11-16T03:27:36.149Z,95010.16
2022-11-16T03:30:09.211Z,95018.28
2022-11-16T03:32:44.499Z,95023.25
2022-11-16T03:35:16.463Z,95033.47
2022-11-16T03:37:46.770Z,95036.94
2022-11-16T03:40:15.365Z,95035.28
2022-11-16T03:42:44.480Z,95031.22
2022-11-16T03:45:14.430Z,95023.91
2022-11-16T03:47:42.485Z,95017.75
2022-11-16T03:50:11.251Z,95006.38
2022-11-16T03:52:38.909Z,95019.13
2022-11-16T03:55:06.853Z,95019.06
2022-11-16T03:57:34.401Z,95021.19
2022-11-16T04:00:01.938Z,95009.47
2022-11-16T04:02:30.788Z,95011.00
2022-11-16T04:05:16.185Z,95005.56
2022-11-16T04:08:01.726Z,95017.25
2022-11-16T04:10:46.793Z,95017.75
2022-11-16T04:13:41.665Z,95016.88
2022-11-16T04:16:27.194Z,95022.06
2022-11-16T04:19:13.972Z,95029.19
2022-11-16T04:22:03.478Z,95030.81
2022-11-16T04:24:35.798Z,95024.75
2022-11-16T04:27:23.197Z,95022.47
2022-11-16T04:29:50.943Z,95026.34
2022-11-16T04:32:36.449Z,95015.88
2022-11-16T04:35:23.198Z,95026.06
2022-11-16T04:37:52.372Z,95023.66
2022-11-16T04:40:22.385Z,95026.84
2022-11-16T04:42:53.511Z,95024.44
2022-11-16T04:45:38.806Z,95022.25
2022-11-16T04:48:07.584Z,95034.50
2022-11-16T04:50:36.830Z,95025.91
2022-11-16T04:53:05.009Z,95034.34
2022-11-16T04:55:32.612Z,95029.25
2022-11-16T04:58:00.706Z,95024.13
2022-11-16T05:00:28.413Z,95020.22
2022-11-16T05:03:01.028Z,95037.50
2022-11-16T05:05:29.333Z,95082.06
2022-11-16T05:07:58.250Z,95085.81
2022-11-16T05:10:25.774Z,95100.75
2022-11-16T05:12:53.275Z,95110.06
2022-11-16T05:15:20.852Z,95112.09
2022-11-16T05:17:48.429Z,95101.66
2022-11-16T05:20:33.678Z,95115.03
2022-11-16T05:23:02.612Z,95106.88
2022-11-16T05:25:35.276Z,95104.50
2022-11-16T05:28:04.116Z,95086.16
2022-11-16T05:30:31.667Z,95057.69
2022-11-16T05:32:59.403Z,95066.25
2022-11-16T05:35:26.943Z,95064.59
2022-11-16T05:37:54.469Z,95060.81
2022-11-16T05:40:23.320Z,95061.56
2022-11-16T05:42:50.839Z,95064.41
2022-11-16T05:45:20.992Z,95057.34
2022-11-16T05:47:48.860Z,95064.09
2022-11-16T05:50:17.047Z,95070.34
2022-11-16T05:52:44.556Z,95068.88
2022-11-16T05:55:12.061Z,95069.72
2022-11-16T05:57:40.908Z,95065.09
2022-11-16T06:00:10.074Z,95070.72
2022-11-16T06:02:37.644Z,95074.19
2022-11-16T06:05:05.526Z,95071.00
2022-11-16T06:07:34.196Z,95071.63
2022-11-16T06:10:01.789Z,95065.03
2022-11-16T06:12:29.295Z,95068.53
2022-11-16T06:14:58.146Z,95064.00
2022-11-16T06:17:25.651Z,95070.84
2022-11-16T06:19:53.157Z,95062.28
2022-11-16T06:22:20.649Z,95064.81
2022-11-16T06:24:48.162Z,95064.47
2022-11-16T06:27:15.935Z,95062.56
2022-11-16T06:29:43.445Z,95065.19
2022-11-16T06:32:12.300Z,95059.03
2022-11-16T06:34:39.832Z,95063.59
2022-11-16T06:37:07.342Z,95060.69
2022-11-16T06:39:34.887Z,95061.44
2022-11-16T06:42:02.379Z,95055.38
2022-11-16T06:44:29.910Z,95056.03
2022-11-16T06:46:57.434Z,95054.34
2022-11-16T06:49:26.328Z,95062.06
2022-11-16T06:51:53.831Z,95051.31
2022-11-16T06:54:21.366Z,95055.25
2022-11-16T06:56:48.885Z,95053.09
2022-11-16T06:59:20.505Z,95054.50
2022-11-16T07:01:48.072Z,95050.41
2022-11-16T07:04:15.887Z,95045.09
2022-11-16T07:06:44.722Z,95049.31
2022-11-16T07:09:12.341Z,95053.88
2022-11-16T07:11:39.825Z,95050.94
2022-11-16T07:14:07.328Z,95057.22
2022-11-16T07:16:35.675Z,95056.50
2022-11-16T07:19:03.379Z,95056.59
2022-11-16T07:21:31.195Z,95056.50
2022-11-16T07:24:00.049Z,95063.50
2022-11-16T07:26:28.811Z,95057.50
2022-11-16T07:28:56.335Z,95061.41
2022-11-16T07:31:23.825Z,95051.16
2022-11-16T07:33:52.412Z,95055.44
2022-11-16T07:36:20.415Z,95057.19
2022-11-16T07:38:48.203Z,95050.31
2022-11-16T07:41:19.282Z,95045.03
2022-11-16T07:43:52.585Z,95049.28
2022-11-16T07:46:46.173Z,95046.44
2022-11-16T07:49:11.554Z,95053.84
2022-11-16T07:51:39.225Z,95055.47
2022-11-16T07:54:07.164Z,95059.41
2022-11-16T07:56:36.002Z,95066.13
2022-11-16T07:59:03.530Z,95068.47
2022-11-16T08:01:31.147Z,95082.34
2022-11-16T08:03:58.678Z,95070.66
2022-11-16T08:06:28.211Z,95082.16
2022-11-16T08:08:58.720Z,95073.31
2022-11-16T08:11:27.102Z,95080.44
2022-11-16T08:13:56.723Z,95079.44
2022-11-16T08:16:24.395Z,95081.78
2022-11-16T08:18:51.872Z,95088.25
2022-11-16T08:21:20.218Z,95081.38
2022-11-16T08:23:47.854Z,95077.66
2022-11-16T08:26:17.372Z,95080.44
2022-11-16T08:28:46.883Z,95079.28
2022-11-16T08:31:17.793Z,95080.06
2022-11-16T08:33:45.782Z,95077.38
2022-11-16T08:36:17.303Z,95081.06
2022-11-16T08:38:45.362Z,95077.28
2022-11-16T08:41:13.251Z,95080.94
2022-11-16T08:43:41.207Z,95078.94
2022-11-16T08:46:08.802Z,95084.31
2022-11-16T08:48:38.207Z,95081.81
2022-11-16T08:51:17.477Z,95086.63
2022-11-16T08:53:47.911Z,95095.97
2022-11-16T08:56:16.194Z,95096.28
2022-11-16T08:58:46.703Z,95101.56
2022-11-16T09:01:15.754Z,95112.59
2022-11-16T09:03:45.233Z,95109.66
2022-11-16T09:06:13.285Z,95105.50
2022-11-16T09:08:42.587Z,95107.25
2022-11-16T09:11:12.454Z,95111.72
2022-11-16T09:13:40.416Z,95116.34
2022-11-16T09:16:08.535Z,95119.47
2022-11-16T09:18:37.050Z,95118.97
2022-11-16T09:21:06.154Z,95118.69
2022-11-16T09:23:33.702Z,95119.22
2022-11-16T09:26:03.348Z,95117.59
2022-11-16T09:28:31.014Z,95106.16
2022-11-16T09:31:01.890Z,95109.34
2022-11-16T09:33:31.342Z,95105.50
2022-11-16T09:36:02.478Z,95104.75
2022-11-16T09:38:54.287Z,95092.41
2022-11-16T09:41:35.023Z,95104.13
2022-11-16T09:44:13.242Z,95099.81
2022-11-16T09:46:44.507Z,95106.69
2022-11-16T09:49:17.864Z,95097.81
2022-11-16T09:51:49.223Z,95105.31
2022-11-16T09:54:21.584Z,95106.06
2022-11-16T09:56:52.739Z,95102.97
2022-11-16T09:59:24.647Z,95100.84
2022-11-16T10:01:56.826Z,95092.03
2022-11-16T10:04:36.786Z,95092.19
2022-11-16T10:07:09.038Z,95086.41
2022-11-16T10:09:37.995Z,95082.19
2022-11-16T10:12:15.989Z,95082.19
2022-11-16T10:15:15.527Z,95084.00
2022-11-16T10:18:15.349Z,95078.28
2022-11-16T10:21:00.426Z,95085.38
2022-11-16T10:23:38.614Z,95083.16
2022-11-16T10:26:23.923Z,95086.97
2022-11-16T10:29:05.994Z,95073.75
2022-11-16T10:31:54.086Z,95070.91
2022-11-16T10:34:26.535Z,95075.59
2022-11-16T10:36:58.795Z,95063.19
2022-11-16T10:39:27.548Z,95072.09
2022-11-16T10:42:06.063Z,95070.81
2022-11-16T10:44:39.260Z,95061.59
2022-11-16T10:47:13.194Z,95059.50
2022-11-16T10:49:51.122Z,95055.56
2022-11-16T10:52:18.687Z,95051.34
2022-11-16T10:54:46.210Z,95056.00
2022-11-16T10:57:15.118Z,95070.59
2022-11-16T10:59:44.963Z,95065.09
2022-11-16T11:02:33.507Z,95065.72
2022-11-16T11:05:17.568Z,95067.00
2022-11-16T11:07:52.983Z,95054.94
2022-11-16T11:10:30.019Z,95065.63
2022-11-16T11:13:23.577Z,95054.22
2022-11-16T11:15:51.406Z,95056.78
2022-11-16T11:18:25.826Z,95053.97
2022-11-16T11:21:05.924Z,95055.31
2022-11-16T11:23:43.474Z,95050.09
2022-11-16T11:26:34.729Z,95049.00
2022-11-16T11:29:16.734Z,95055.06
2022-11-16T11:31:47.151Z,95047.53
2022-11-16T11:34:18.747Z,95046.78
2022-11-16T11:36:51.055Z,95048.91
2022-11-16T11:39:31.294Z,95060.53
2022-11-16T11:42:04.942Z,95048.56
2022-11-16T11:44:39.514Z,95055.78
2022-11-16T11:47:55.567Z,95050.09
2022-11-16T11:50:14.470Z,95039.06
2022-11-16T11:52:48.168Z,95038.72
2022-11-16T11:55:18.610Z,95042.72
2022-11-16T11:57:49.932Z,95038.94
2022-11-16T12:00:19.390Z,95033.16
2022-11-16T12:03:18.365Z,95031.78
2022-11-16T12:05:58.820Z,95033.13
2022-11-16T12:08:40.776Z,95032.69
2022-11-16T12:11:15.912Z,95018.19
2022-11-16T12:13:58.036Z,95019.31
2022-11-16T12:16:33.580Z,95013.72
2022-11-16T12:19:16.286Z,95010.94
2022-11-16T12:21:53.004Z,95010.09
2022-11-16T12:24:34.745Z,95008.97
2022-11-16T12:27:16.392Z,95016.38
2022-11-16T12:29:55.231Z,95007.84
2022-11-16T12:32:38.399Z,94997.81
2022-11-16T12:35:21.085Z,95004.94
2022-11-16T12:38:00.630Z,95000.84
2022-11-16T12:40:37.683Z,95006.22
2022-11-16T12:43:12.233Z,94993.91
2022-11-16T12:46:03.972Z,94991.47
2022-11-16T12:48:57.321Z,94999.44
2022-11-16T12:51:48.807Z,95008.25
2022-11-16T12:54:32.326Z,95009.41
2022-11-16T12:57:06.559Z,95014.28
2022-11-16T12:59:59.603Z,95016.63
2022-11-16T13:02:37.664Z,95013.91
2022-11-16T13:05:16.318Z,95006.88
2022-11-16T13:07:46.747Z,95014.53
2022-11-16T13:10:19.555Z,95022.53
2022-11-16T13:12:55.873Z,95014.81
2022-11-16T13:15:37.093Z,95024.84
2022-11-16T13:18:08.167Z,95014.78
2022-11-16T13:20:45.930Z,95018.66
2022-11-16T13:23:19.257Z,95013.16
2022-11-16T13:25:52.091Z,95020.91
2022-11-16T13:28:33.192Z,95021.31
2022-11-16T13:31:05.875Z,95013.84
2022-11-16T13:33:40.643Z,95016.47
2022-11-16T13:36:43.593Z,95016.72
2022-11-16T13:39:17.045Z,95008.19
2022-11-16T13:41:50.147Z,95009.84
2022-11-16T13:44:28.667Z,95013.28
2022-11-16T13:46:59.651Z,95012.16
2022-11-16T13:49:31.896Z,95012.25
2022-11-16T13:52:17.183Z,95011.38
2022-11-16T13:54:53.075Z,95003.94
2022-11-16T13:57:25.222Z,95011.00
2022-11-16T14:00:09.054Z,95007.41
2022-11-16T14:02:38.586Z,95004.53
2022-11-16T14:05:15.855Z,94992.25
2022-11-16T14:07:47.218Z,94992.25
2022-11-16T14:11:04.740Z,94991.00
2022-11-16T14:13:40.157Z,94980.00
2022-11-16T14:16:42.703Z,94975.09
2022-11-16T14:19:43.776Z,94979.59
2022-11-16T14:22:22.454Z,94971.41
2022-11-16T14:24:58.847Z,94976.72
2022-11-16T14:27:34.327Z,94962.81
2022-11-16T14:30:06.595Z,94952.16
2022-11-16T14:32:42.574Z,94954.72
2022-11-16T14:35:28.568Z,94954.09
2022-11-16T14:38:01.229Z,94944.69
2022-11-16T14:40:31.568Z,94938.84
2022-11-16T14:43:19.974Z,94941.09
2022-11-16T14:45:50.031Z,94946.25
2022-11-16T14:48:19.742Z,94949.28
2022-11-16T14:51:01.263Z,94949.69
2022-11-16T14:53:30.350Z,94943.16
2022-11-16T14:56:09.853Z,94942.16
2022-11-16T14:58:37.937Z,94936.22
2022-11-16T15:01:08.782Z,94942.34
2022-11-16T15:03:42.221Z,94943.38
2022-11-16T15:06:10.244Z,94947.06
2022-11-16T15:08:44.150Z,94940.72
2022-11-16T15:11:23.864Z,94949.72
2022-11-16T15:13:51.818Z,94948.28
2022-11-16T15:16:21.170Z,94962.34
2022-11-16T15:18:59.625Z,94955.22
2022-11-16T15:21:27.819Z,94962.28
2022-11-16T15:24:23.425Z,94960.84
2022-11-16T15:26:45.111Z,94957.31
2022-11-16T15:29:17.486Z,94959.00
2022-11-16T15:31:45.488Z,94958.09
2022-11-16T15:34:13.973Z,94964.56
2022-11-16T15:36:42.171Z,94964.66
2022-11-16T15:39:14.200Z,94966.41
2022-11-16T15:41:42.508Z,94966.03
2022-11-16T15:44:16.574Z,94968.50
2022-11-16T15:46:47.922Z,94975.00
2022-11-16T15:49:26.744Z,94971.47
2022-11-16T15:51:54.275Z,94968.06
2022-11-16T15:54:26.670Z,94962.72
2022-11-16T15:56:56.585Z,94960.91
2022-11-16T15:59:28.695Z,94964.31
2022-11-16T16:01:57.092Z,94957.97
2022-11-16T16:04:26.471Z,94962.00
2022-11-16T16:06:55.820Z,94960.72
2022-11-16T16:09:29.871Z,94956.72
2022-11-16T16:12:13.153Z,94962.38
2022-11-16T16:14:42.067Z,94965.59
2022-11-16T16:17:11.503Z,94963.00
2022-11-16T16:19:42.113Z,94967.56
2022-11-16T16:22:15.712Z,94970.31
2022-11-16T16:24:46.250Z,94977.75
2022-11-16T16:27:18.631Z,94977.19
2022-11-16T16:29:48.283Z,94976.94
2022-11-16T16:32:23.739Z,94965.44
2022-11-16T16:34:51.658Z,94962.59
2022-11-16T16:37:19.230Z,94963.34
2022-11-16T16:39:46.794Z,94946.88
2022-11-16T16:42:16.476Z,94952.81
2022-11-16T16:44:45.349Z,94949.81
2022-11-16T16:47:14.789Z,94949.03
2022-11-16T16:49:42.509Z,94939.72
2022-11-16T16:52:12.949Z,94946.28
2022-11-16T16:54:40.799Z,94948.66
2022-11-16T16:57:14.161Z,94953.75
2022-11-16T16:59:41.755Z,94956.41
2022-11-16T17:02:10.947Z,94952.00
2022-11-16T17:04:39.830Z,94955.59
2022-11-16T17:07:07.464Z,94955.00
2022-11-16T17:09:35.029Z,94938.09
2022-11-16T17:12:02.762Z,94941.97
2022-11-16T17:14:30.330Z,94936.34
2022-11-16T17:16:57.927Z,94929.38
2022-11-16T17:19:25.451Z,94928.56
2022-11-16T17:21:54.317Z,94927.63
2022-11-16T17:24:21.837Z,94927.22
2022-11-16T17:26:49.448Z,94928.66
2022-11-16T17:29:17.128Z,94928.81
2022-11-16T17:31:44.854Z,94934.22
2022-11-16T17:34:14.286Z,94932.28
2022-11-16T17:36:42.055Z,94933.94
2022-11-16T17:39:10.920Z,94938.53
2022-11-16T17:41:38.762Z,94937.38
2022-11-16T17:44:07.182Z,94925.38
2022-11-16T17:46:34.704Z,94937.91
2022-11-16T17:49:02.353Z,94933.50
2022-11-16T17:51:30.517Z,94939.34
2022-11-16T17:53:58.053Z,94935.78
2022-11-16T17:56:28.203Z,94930.97
2022-11-16T17:58:58.172Z,94929.50
2022-11-16T18:01:27.073Z,94931.47
2022-11-16T18:03:54.758Z,94937.19
2022-11-16T18:06:23.875Z,94931.25
2022-11-16T18:08:52.247Z,94940.66
2022-11-16T18:11:21.067Z,94922.75
2022-11-16T18:13:53.488Z,94918.81
2022-11-16T18:16:24.100Z,94917.78
2022-11-16T18:18:57.765Z,94910.00
2022-11-16T18:21:25.963Z,94907.47
2022-11-16T18:23:53.540Z,94915.41
2022-11-16T18:26:23.340Z,94914.81
2022-11-16T18:28:53.673Z,94914.53
2022-11-16T18:31:22.995Z,94916.19
2022-11-16T18:33:50.721Z,94904.94
2022-11-16T18:36:19.454Z,94902.19
2022-11-16T18:38:47.371Z,94898.69
2022-11-16T18:41:19.560Z,94892.44
2022-11-16T18:43:52.646Z,94889.31
2022-11-16T18:46:21.043Z,94882.47
2022-11-16T18:48:48.718Z,94893.69
2022-11-16T18:51:17.153Z,94891.97
2022-11-16T18:53:45.358Z,94895.16
2022-11-16T18:56:13.240Z,94891.44
2022-11-16T18:58:50.896Z,94889.56
2022-11-16T19:01:22.453Z,94884.53
2022-11-16T19:03:50.188Z,94878.22
2022-11-16T19:06:18.399Z,94889.69
2022-11-16T19:08:50.449Z,94875.91
2022-11-16T19:11:23.943Z,94872.47
2022-11-16T19:13:54.286Z,94870.09
2022-11-16T19:16:24.991Z,94874.09
2022-11-16T19:18:53.232Z,94872.41
2022-11-16T19:21:21.783Z,94867.34
2022-11-16T19:23:51.235Z,94850.59
2022-11-16T19:26:20.544Z,94862.56
2022-11-16T19:28:49.405Z,94853.16
2022-11-16T19:31:19.115Z,94861.06
2022-11-16T19:33:48.013Z,94877.31
2022-11-16T19:36:17.127Z,94872.75
2022-11-16T19:38:45.775Z,94878.19
2022-11-16T19:41:14.669Z,94884.34
2022-11-16T19:43:42.330Z,94882.44
2022-11-16T19:46:11.824Z,94884.75
2022-11-16T19:48:39.780Z,94879.78
2022-11-16T19:51:10.826Z,94880.00
2022-11-16T19:53:39.489Z,94867.56
2022-11-16T19:56:09.480Z,94863.53
2022-11-16T19:58:38.384Z,94861.75
2022-11-16T20:01:07.928Z,94865.66
2022-11-16T20:03:38.271Z,94867.19
2022-11-16T20:06:10.017Z,94870.66
2022-11-16T20:08:37.953Z,94871.94
2022-11-16T20:11:12.382Z,94878.47
2022-11-16T20:13:40.048Z,94859.47
2022-11-16T20:16:09.531Z,94859.41
2022-11-16T20:18:37.214Z,94854.81
2022-11-16T20:21:06.332Z,94847.94
2022-11-16T20:23:35.926Z,94837.59
2022-11-16T20:26:07.947Z,94845.94
2022-11-16T20:28:36.818Z,94852.19
2022-11-16T20:31:05.333Z,94861.13
2022-11-16T20:33:34.739Z,94857.84
2022-11-16T20:36:03.363Z,94848.31
2022-11-16T20:38:32.926Z,94851.69
2022-11-16T20:41:09.885Z,94852.88
2022-11-16T20:43:39.199Z,94860.94
2022-11-16T20:46:07.366Z,94852.59
2022-11-16T20:48:34.945Z,94858.63
2022-11-16T20:51:03.003Z,94866.75
2022-11-16T20:53:30.689Z,94854.16
2022-11-16T20:55:58.407Z,94852.56
2022-11-16T20:58:27.299Z,94856.28
2022-11-16T21:00:54.940Z,94856.28
2022-11-16T21:03:22.616Z,94856.53
2022-11-16T21:05:52.624Z,94858.28
2022-11-16T21:08:20.450Z,94855.78
2022-11-16T21:10:48.628Z,94859.94
2022-11-16T21:13:35.424Z,94869.06
2022-11-16T21:16:06.639Z,94867.19
2022-11-16T21:18:34.607Z,94865.13
2022-11-16T21:21:02.925Z,94860.59
2022-11-16T21:23:32.475Z,94856.31
2022-11-16T21:26:03.180Z,94864.34
2022-11-16T21:28:30.824Z,94853.75
2022-11-16T21:30:59.953Z,94856.91
2022-11-16T21:33:29.585Z,94855.78
2022-11-16T21:35:57.240Z,94868.00
2022-11-16T21:38:26.366Z,94871.22
2022-11-16T21:40:53.949Z,94867.41
2022-11-16T21:43:21.492Z,94859.41
2022-11-16T21:45:49.418Z,94856.84
2022-11-16T21:48:16.959Z,94867.75
2022-11-16T21:50:45.835Z,94864.94
2022-11-16T21:53:13.381Z,94867.34
2022-11-16T21:55:40.914Z,94867.09
2022-11-16T21:58:08.507Z,94852.88
2022-11-16T22:00:36.043Z,94858.06
2022-11-16T22:03:03.549Z,94852.56
2022-11-16T22:05:48.610Z,94850.91
2022-11-16T22:08:17.476Z,94840.09
2022-11-16T22:10:50.455Z,94850.94
2022-11-16T22:13:18.003Z,94850.81
2022-11-16T22:15:45.540Z,94833.09
2022-11-16T22:18:13.309Z,94818.66
2022-11-16T22:20:41.172Z,94817.78
2022-11-16T22:23:08.778Z,94817.69
2022-11-16T22:25:38.842Z,94798.78
2022-11-16T22:28:20.246Z,94806.94
2022-11-16T22:30:51.746Z,94796.28
2022-11-16T22:33:19.965Z,94807.06
2022-11-16T22:35:47.793Z,94804.34
2022-11-16T22:38:15.320Z,94805.97
2022-11-16T22:40:49.567Z,94803.91
2022-11-16T22:43:17.095Z,94803.81
2022-11-16T22:45:44.639Z,94797.63
2022-11-16T22:48:12.154Z,94796.97
2022-11-16T22:50:39.734Z,94790.81
2022-11-16T22:53:07.284Z,94795.72
2022-11-16T22:55:35.773Z,94800.25
2022-11-16T22:58:05.445Z,94801.66
2022-11-16T23:00:38.932Z,94786.34
2022-11-16T23:03:08.354Z,94787.25
2022-11-16T23:05:35.916Z,94785.50
2022-11-16T23:08:03.867Z,94786.69
2022-11-16T23:10:51.391Z,94780.91
2022-11-16T23:13:37.763Z,94783.69
2022-11-16T23:16:05.752Z,94777.28
2022-11-16T23:18:33.241Z,94768.22
2022-11-16T23:21:18.565Z,94764.41
2022-11-16T23:24:03.853Z,94761.66
2022-11-16T23:26:48.997Z,94760.63
2022-11-16T23:29:17.857Z,94761.91
2022-11-16T23:31:45.385Z,94754.34
2022-11-16T23:34:12.878Z,94756.22
2022-11-16T23:36:40.395Z,94746.34
2022-11-16T23:39:08.354Z,94745.41
2022-11-16T23:41:53.386Z,94748.09
2022-11-16T23:44:22.489Z,94739.59
2022-11-16T23:46:50.011Z,94739.25
2022-11-16T23:49:17.538Z,94736.78
2022-11-16T23:51:45.055Z,94738.22
2022-11-16T23:54:12.584Z,94750.66
2022-11-16T23:56:40.070Z,94745.41
2022-11-16T23:59:07.708Z,94745.91
